Time;durP1;ratioP1;P1;durP2;ratioP2;P2;SDS_P1;SDS_P2;PMS_P1;PMS_P2;Temp;Humidity;BMP_temperature;BMP_pressure;BME280_temperature;BME280_humidity;BME280_pressure;Samples;Min_cycle;Max_cycle;Signal;HPM_P1;HPM_P2
2023/03/19 00:05:50;;;;;;;7.73;3.43;;;10.40;99.90;;;;;;20853068;28;20582;-78
2023/03/19 00:15:51;;;;;;;4.55;2.88;;;10.60;99.90;;;;;;20795733;28;20040;-78
2023/03/19 00:25:53;;;;;;;9.07;3.47;;;10.60;99.90;;;;;;20776172;28;20022;-76
2023/03/19 00:35:54;;;;;;;12.35;3.70;;;10.40;99.90;;;;;;20807788;28;20492;-76
2023/03/19 00:45:55;;;;;;;8.33;3.27;;;10.20;99.90;;;;;;20833736;28;20034;-78
2023/03/19 00:55:56;;;;;;;7.93;3.47;;;10.20;99.90;;;;;;20781656;28;20074;-78
2023/03/19 01:05:57;;;;;;;9.23;3.63;;;10.20;99.90;;;;;;20788616;28;20076;-78
2023/03/19 01:15:58;;;;;;;7.32;3.63;;;10.00;99.90;;;;;;20790605;28;20041;-78
2023/03/19 01:25:59;;;;;;;8.20;3.60;;;10.00;99.90;;;;;;20830338;28;20037;-78
2023/03/19 01:36:04;;;;;;;9.98;4.18;;;9.80;99.90;;;;;;20850486;28;20042;-78
2023/03/19 01:46:30;;;;;;;8.32;4.15;;;9.60;99.90;;;;;;20817004;28;20030;-78
2023/03/19 01:57:08;;;;;;;10.77;4.38;;;9.40;99.90;;;;;;20856586;28;20033;-77
2023/03/19 02:07:31;;;;;;;21.83;5.78;;;9.30;99.90;;;;;;20840467;28;20029;-77
2023/03/19 02:17:33;;;;;;;11.63;4.50;;;9.20;99.90;;;;;;20849295;28;20029;-76
2023/03/19 02:27:34;;;;;;;10.15;4.85;;;9.00;99.90;;;;;;20855212;28;20103;-78
2023/03/19 02:37:35;;;;;;;19.27;5.28;;;9.10;99.90;;;;;;20834452;28;20041;-78
2023/03/19 02:47:37;;;;;;;18.33;5.82;;;8.90;99.90;;;;;;20845946;28;20057;-77
2023/03/19 02:57:38;;;;;;;15.90;6.03;;;8.90;99.90;;;;;;20844592;28;20400;-78
2023/03/19 03:07:39;;;;;;;18.37;7.03;;;8.80;99.90;;;;;;20846423;28;20391;-78
2023/03/19 03:17:43;;;;;;;16.80;5.63;;;8.70;99.90;;;;;;20828540;28;20501;-77
2023/03/19 03:27:44;;;;;;;14.80;6.47;;;8.70;99.90;;;;;;20829114;28;20381;-78
2023/03/19 03:37:46;;;;;;;9.70;4.20;;;8.70;99.90;;;;;;20859651;28;20087;-77
2023/03/19 03:47:47;;;;;;;;;;;8.80;99.90;;;;;;20859302;28;20395;-76
2023/03/19 03:57:48;;;;;;;12.23;5.32;;;9.00;99.90;;;;;;20834810;28;20015;-78
2023/03/19 04:07:50;;;;;;;4.73;3.10;;;8.60;99.90;;;;;;20859127;28;20026;-78
2023/03/19 04:17:51;;;;;;;13.35;5.25;;;8.70;99.90;;;;;;20844441;28;20439;-78
2023/03/19 04:27:55;;;;;;;13.18;6.20;;;8.80;99.90;;;;;;20857760;28;20025;-77
2023/03/19 04:37:57;;;;;;;5.10;3.00;;;8.60;99.90;;;;;;20858554;28;20411;-79
2023/03/19 04:47:58;;;;;;;7.03;3.50;;;8.40;99.90;;;;;;20856254;28;20097;-80
2023/03/19 04:58:00;;;;;;;5.85;2.28;;;8.30;99.90;;;;;;20824807;28;20048;-79
2023/03/19 05:08:03;;;;;;;11.68;4.70;;;8.40;99.90;;;;;;20832254;28;20085;-79
2023/03/19 05:18:04;;;;;;;7.18;3.35;;;8.40;99.90;;;;;;20810287;28;20455;-79
2023/03/19 05:28:12;;;;;;;5.82;3.20;;;8.30;99.90;;;;;;20840111;28;20025;-78
2023/03/19 05:38:15;;;;;;;7.78;3.17;;;8.10;99.90;;;;;;20947053;23;20068;-78
2023/03/19 05:48:19;;;;;;;8.18;3.35;;;7.90;99.90;;;;;;20982198;28;20063;-78
2023/03/19 05:58:22;;;;;;;8.07;3.85;;;8.00;99.90;;;;;;20914457;28;20531;-78
2023/03/19 06:08:23;;;;;;;4.95;1.92;;;8.10;99.90;;;;;;20913406;28;20548;-79
2023/03/19 06:18:39;;;;;;;5.38;2.95;;;8.30;99.90;;;;;;20938209;28;20033;-78
2023/03/19 06:28:43;;;;;;;9.93;3.70;;;8.40;99.90;;;;;;20920336;28;20498;-78
2023/03/19 06:38:44;;;;;;;9.20;3.20;;;8.40;99.90;;;;;;20875427;28;20040;-79
2023/03/19 06:48:45;;;;;;;6.87;3.27;;;8.60;99.90;;;;;;20956530;28;20049;-78
2023/03/19 06:58:46;;;;;;;5.83;2.63;;;8.90;99.90;;;;;;20917149;28;20028;-79
2023/03/19 07:08:47;;;;;;;7.17;3.57;;;9.20;99.90;;;;;;20910688;28;20109;-79
2023/03/19 07:18:47;;;;;;;2.70;1.70;;;9.50;99.90;;;;;;20916667;28;20047;-79
2023/03/19 07:28:48;;;;;;;7.47;3.37;;;9.60;99.90;;;;;;20893760;28;20028;-79
2023/03/19 07:38:49;;;;;;;9.60;4.00;;;9.80;99.90;;;;;;20905434;28;20063;-79
2023/03/19 07:48:51;;;;;;;6.63;3.53;;;10.00;99.90;;;;;;20917029;28;20561;-79
2023/03/19 07:58:52;;;;;;;11.30;3.90;;;10.10;99.90;;;;;;20896432;28;20115;-79
2023/03/19 08:08:53;;;;;;;10.77;4.20;;;10.20;99.90;;;;;;20913429;28;20044;-79
2023/03/19 08:18:53;;;;;;;10.33;4.60;;;10.60;99.90;;;;;;20912623;28;20395;-79
2023/03/19 08:28:54;;;;;;;8.20;4.30;;;10.80;99.90;;;;;;20926892;28;20239;-79
2023/03/19 08:38:55;;;;;;;10.70;4.30;;;11.00;99.90;;;;;;20882880;28;20487;-79
2023/03/19 08:48:56;;;;;;;7.32;4.20;;;11.10;99.90;;;;;;20921991;28;20452;-79
2023/03/19 08:58:57;;;;;;;9.67;3.90;;;11.50;99.90;;;;;;20924835;28;20040;-79
2023/03/19 09:08:58;;;;;;;42.27;20.73;;;12.30;99.90;;;;;;20924739;28;20480;-79
2023/03/19 09:18:58;;;;;;;8.57;4.60;;;13.20;99.90;;;;;;20932072;28;20033;-80
2023/03/19 09:29:00;;;;;;;70.77;38.83;;;12.80;99.90;;;;;;20929431;28;20036;-79
2023/03/19 09:39:01;;;;;;;8.32;3.97;;;14.90;99.90;;;;;;20901283;28;20028;-80
2023/03/19 09:49:11;;;;;;;8.80;3.80;;;15.20;99.90;;;;;;20924504;28;20118;-80
2023/03/19 09:59:12;;;;;;;8.38;2.97;;;15.20;99.90;;;;;;20926308;28;20207;-80
2023/03/19 10:09:18;;;;;;;5.63;3.33;;;15.60;99.90;;;;;;20942484;28;20033;-81
2023/03/19 10:19:58;;;;;;;8.73;2.75;;;15.00;99.90;;;;;;21005289;28;20029;-80
2023/03/19 10:29:59;;;;;;;6.40;2.60;;;15.60;99.90;;;;;;20891459;28;20033;-80
2023/03/19 10:40:01;;;;;;;3.70;2.00;;;15.50;99.90;;;;;;20948647;28;20047;-80
2023/03/19 10:50:02;;;;;;;8.90;3.10;;;15.40;99.90;;;;;;20902488;28;20098;-80
2023/03/19 11:00:14;;;;;;;;;;;15.50;99.90;;;;;;20929474;28;20048;-80
2023/03/19 11:10:16;;;;;;;5.50;2.55;;;15.80;99.90;;;;;;20950502;28;19919;-80
2023/03/19 11:20:22;;;;;;;;;;;15.20;99.90;;;;;;21009454;28;20036;-81
2023/03/19 11:30:23;;;;;;;4.30;2.30;;;15.90;99.90;;;;;;21009836;28;19912;-80
2023/03/19 11:40:42;;;;;;;8.50;2.73;;;15.50;99.90;;;;;;20962406;23;20075;-77
2023/03/19 11:51:20;;;;;;;5.68;2.67;;;15.30;99.90;;;;;;20984167;28;20127;-77
2023/03/19 12:01:48;;;;;;;5.30;2.75;;;15.10;99.90;;;;;;20976262;28;20041;-77
2023/03/19 12:12:15;;;;;;;5.38;3.05;;;15.20;99.90;;;;;;20884471;28;20079;-77
2023/03/19 12:22:28;;;;;;;6.57;2.03;;;15.90;99.90;;;;;;20821461;28;20147;-77
2023/03/19 12:32:57;;;;;;;4.88;1.92;;;16.00;99.90;;;;;;20852514;28;20033;-77
2023/03/19 12:43:04;;;;;;;5.32;2.30;;;15.80;99.90;;;;;;20866635;28;20530;-77
2023/03/19 12:53:13;;;;;;;3.67;2.17;;;15.20;99.90;;;;;;20836265;28;20043;-78
2023/03/19 13:03:27;;;;;;;5.82;3.30;;;15.10;99.90;;;;;;20856835;28;20041;-77
2023/03/19 13:13:52;;;;;;;5.22;2.80;;;14.80;99.90;;;;;;20867772;28;20026;-76
2023/03/19 13:24:16;;;;;;;5.65;2.40;;;14.70;99.90;;;;;;20835342;28;20091;-77
2023/03/19 13:34:17;;;;;;;7.93;2.40;;;14.40;99.90;;;;;;20862408;28;20522;-77
2023/03/19 13:44:21;;;;;;;6.05;2.20;;;14.30;99.90;;;;;;20857878;28;20080;-77
2023/03/19 13:54:38;;;;;;;3.63;1.85;;;14.10;99.90;;;;;;20832734;28;20029;-77
2023/03/19 14:04:48;;;;;;;10.57;2.03;;;14.30;99.90;;;;;;20863155;28;20029;-77
2023/03/19 14:15:20;;;;;;;5.10;1.85;;;13.80;99.90;;;;;;20849832;28;20480;-77
2023/03/19 14:25:25;;;;;;;9.40;2.93;;;13.60;99.90;;;;;;20819343;28;20038;-77
2023/03/19 14:35:27;;;;;;;5.43;2.33;;;13.40;99.90;;;;;;20869796;28;20079;-77
2023/03/19 14:45:38;;;;;;;5.55;2.10;;;13.70;99.90;;;;;;20845080;28;20030;-77
2023/03/19 14:55:40;;;;;;;13.23;2.67;;;13.30;99.90;;;;;;20827109;28;20056;-77
2023/03/19 15:05:41;;;;;;;12.23;3.08;;;12.40;99.90;;;;;;20866318;28;20024;-77
2023/03/19 15:16:14;;;;;;;3.50;0.60;;;12.20;99.90;;;;;;20839145;28;20052;-77
2023/03/19 15:26:27;;;;;;;0.55;0.40;;;11.50;99.90;;;;;;20813708;28;20299;-77
2023/03/19 15:36:32;;;;;;;4.85;0.60;;;10.20;99.90;;;;;;20891377;28;20044;-78
2023/03/19 15:46:35;;;;;;;1.42;0.60;;;10.20;99.90;;;;;;20853407;28;20044;-77
2023/03/19 15:56:36;;;;;;;0.90;0.50;;;9.70;99.90;;;;;;20841084;28;20033;-76
2023/03/19 16:06:39;;;;;;;3.20;0.90;;;9.20;99.90;;;;;;20889782;28;20025;-77
2023/03/19 16:16:41;;;;;;;3.50;1.20;;;10.00;99.90;;;;;;20846052;28;20040;-77
2023/03/19 16:26:43;;;;;;;4.28;1.90;;;10.50;99.90;;;;;;20844066;28;20029;-77
2023/03/19 16:36:45;;;;;;;1.70;1.17;;;10.60;99.90;;;;;;20890232;28;20071;-77
2023/03/19 16:46:46;;;;;;;2.22;1.20;;;10.50;99.90;;;;;;20888993;28;20037;-77
2023/03/19 16:56:47;;;;;;;1.13;0.60;;;10.20;99.90;;;;;;20919666;28;20036;-77
2023/03/19 17:06:47;;;;;;;1.13;0.90;;;9.80;99.90;;;;;;20870189;28;20051;-77
2023/03/19 17:16:53;;;;;;;2.07;1.03;;;9.70;99.90;;;;;;20832466;28;20029;-77
2023/03/19 17:26:55;;;;;;;2.58;0.88;;;9.10;99.90;;;;;;20831558;28;20455;-76
2023/03/19 17:36:59;;;;;;;1.23;0.70;;;8.80;99.90;;;;;;20909755;23;20068;-80
2023/03/19 17:47:00;;;;;;;1.95;1.10;;;9.00;99.90;;;;;;20900630;28;20029;-80
2023/03/19 17:57:01;;;;;;;1.97;1.30;;;9.20;99.90;;;;;;20854690;28;20033;-81
2023/03/19 18:07:02;;;;;;;6.90;4.23;;;9.20;99.90;;;;;;20884026;28;20454;-80
2023/03/19 18:17:03;;;;;;;6.33;1.80;;;9.20;99.90;;;;;;20923483;28;20037;-81
2023/03/19 18:27:04;;;;;;;;;;;9.00;99.90;;;;;;20924275;28;20517;-80
2023/03/19 18:37:05;;;;;;;2.90;1.70;;;8.60;99.90;;;;;;20924847;28;19913;-81
2023/03/19 18:47:11;;;;;;;2.63;1.52;;;8.80;99.90;;;;;;20892122;28;20079;-80
2023/03/19 18:57:13;;;;;;;2.13;1.52;;;8.90;99.90;;;;;;20841413;28;20492;-81
2023/03/19 19:07:16;;;;;;;1.25;0.73;;;8.70;99.90;;;;;;20872616;28;20086;-80
2023/03/19 19:17:22;;;;;;;1.83;1.23;;;7.80;99.90;;;;;;20864746;28;20041;-80
2023/03/19 19:27:27;;;;;;;0.63;0.40;;;7.80;99.90;;;;;;20874419;28;20041;-81
2023/03/19 19:37:28;;;;;;;2.08;0.50;;;7.90;99.90;;;;;;20908020;28;20522;-81
2023/03/19 19:47:29;;;;;;;2.07;1.10;;;8.00;99.90;;;;;;20912550;28;20041;-81
2023/03/19 19:57:30;;;;;;;;;;;8.00;99.90;;;;;;20907837;28;20040;-81
2023/03/19 20:07:31;;;;;;;0.60;0.60;;;8.00;99.90;;;;;;20895592;28;19916;-80
2023/03/19 20:17:31;;;;;;;0.80;0.60;;;7.80;99.90;;;;;;20908644;28;20543;-80
2023/03/19 20:27:32;;;;;;;0.80;0.53;;;7.40;99.90;;;;;;20914476;28;20024;-81
2023/03/19 20:37:33;;;;;;;1.17;0.70;;;7.30;99.90;;;;;;20888021;28;20037;-80
2023/03/19 20:47:34;;;;;;;2.67;1.10;;;7.20;99.90;;;;;;20842507;28;20045;-80
2023/03/19 20:57:35;;;;;;;;;;;6.70;99.90;;;;;;20868323;28;20029;-79
2023/03/19 21:07:36;;;;;;;7.93;2.90;;;6.80;99.90;;;;;;20878350;28;19913;-80
2023/03/19 21:17:37;;;;;;;10.93;4.60;;;6.80;99.90;;;;;;20919519;28;20517;-81
2023/03/19 21:27:38;;;;;;;;;;;6.40;99.90;;;;;;20919568;28;20295;-81
2023/03/19 21:37:40;;;;;;;10.65;4.05;;;6.50;99.90;;;;;;20922306;28;19916;-80
2023/03/19 21:47:41;;;;;;;6.88;3.42;;;6.10;99.90;;;;;;20917960;28;20037;-81
2023/03/19 21:57:42;;;;;;;4.80;2.63;;;6.30;99.90;;;;;;20907619;28;20063;-81
2023/03/19 22:07:43;;;;;;;5.75;2.75;;;6.60;99.90;;;;;;20918062;28;20044;-80
2023/03/19 22:17:44;;;;;;;10.45;5.43;;;6.60;99.90;;;;;;20917111;28;20191;-80
2023/03/19 22:27:46;;;;;;;;;;;6.70;99.90;;;;;;20916140;28;20147;-81
2023/03/19 22:37:47;;;;;;;65.93;6.80;;;6.60;99.90;;;;;;20915585;28;19999;-81
2023/03/19 22:47:47;;;;;;;37.17;3.95;;;6.40;99.90;;;;;;20915686;28;20044;-81
2023/03/19 22:57:49;;;;;;;4.55;3.20;;;6.30;99.90;;;;;;20916299;28;20060;-80
2023/03/19 23:07:51;;;;;;;;;;;6.10;99.90;;;;;;20875248;28;20029;-81
2023/03/19 23:17:56;;;;;;;4.17;2.10;;;6.20;99.90;;;;;;20816649;28;19928;-81
2023/03/19 23:28:00;;;;;;;4.50;2.40;;;6.50;99.90;;;;;;20834473;28;20685;-81
2023/03/19 23:38:02;;;;;;;5.50;3.53;;;6.60;99.90;;;;;;20877605;23;20064;-77
2023/03/19 23:48:10;;;;;;;10.57;4.85;;;6.60;99.90;;;;;;20797647;28;20034;-77
2023/03/19 23:58:10;;;;;;;16.10;6.13;;;6.70;99.90;;;;;;20760385;28;20026;-77
